Latest Coastal Weather Observations for Rundle Island

IDQ60701

Issued at 1:42 pm EST Tuesday 27 June 2017 (issued every 10 minutes, with the page automatically refreshed every 10 minutes)

About coastal observations | Map of coastal stations | Coastal observations for QLD | Marine services | Other Formats
Station Details ID: 039322 Name: RUNDLE ISLAND Lat: -23.53 Lon: 151.28 Height: 19.8 m
Data from the previous 72 hours. | See also: Recent months at Rundle Island
Date/Time
EST
Temp
°C
Wind Pressure Rain since
9am
mm
Weather Cloud Vis
km
Sea
Height
m
Swell
Dir  Spd
kts
Gust
kts
hPa Trend Height
m
Period
s
Dir
27/01:30pm 20.9 SE 10 12 1021.2 - - - - - - - - -
27/01:00pm 20.6 SE 10 11 1021.5 - - - - - - - - -
27/12:30pm 20.5 SE 10 11 1021.8 - - - - - - - - -
27/12:00pm 20.3 SE 10 12 1022.2 - - - - - - - - -
27/11:30am 20.2 SE 11 13 1022.7 - - - - - - - - -
27/11:00am 20.0 SE 12 13 1022.9 - - - - - - - - -
27/10:30am 19.9 SE 13 15 1023.0 - - - - - - - - -
27/10:00am 19.7 SE 13 15 1023.1 - - - - - - - - -
27/09:30am 19.9 SSE 18 21 1023.0 - - - - - - - - -
27/09:00am 19.9 SSE 15 17 1022.9 - - - - - - - - -
27/08:30am 19.7 SSE 13 15 1022.7 - - - - - - - - -
27/08:00am 19.4 SSE 12 14 1022.3 - - - - - - - - -
27/07:30am 19.0 SSE 10 11 1022.0 - - - - - - - - -
27/07:00am 18.9 S 10 11 1021.8 - - - - - - - - -
27/06:30am 18.9 S 9 11 1021.6 - - - - - - - - -
27/06:00am 19.0 S 9 11 1021.3 - - - - - - - - -
27/05:30am 19.6 S 9 10 1021.2 - - - - - - - - -
27/05:00am 19.7 SSE 7 8 1020.8 - - - - - - - - -
27/04:30am 19.7 SSE 7 8 1020.7 - - - - - - - - -
27/04:00am 19.4 S 8 9 1020.8 - - - - - - - - -
27/03:30am 19.6 S 8 9 1021.1 - - - - - - - - -
27/03:00am 20.3 ESE 5 6 1020.9 - - - - - - - - -
27/02:30am 21.3 E 6 7 1020.8 - - - - - - - - -
27/02:00am 21.3 E 6 7 1020.9 - - - - - - - - -
27/01:30am 21.3 E 7 8 1020.8 - - - - - - - - -
27/01:00am 21.2 E 7 9 1021.0 - - - - - - - - -
27/12:30am 21.2 E 7 8 1021.2 - - - - - - - - -
27/12:00am 20.9 E 7 8 1021.3 - - - - - - - - -
 
Date/Time
EST
Temp
°C
Wind Pressure Rain since
9am
mm
Weather Cloud Vis
km
Sea
Height
m
Swell
Dir  Spd
kts
Gust
kts
hPa Trend Height
m
Period
s
Dir
26/11:30pm 20.9 E 7 8 1021.5 - - - - - - - - -
26/11:00pm 21.0 E 7 9 1021.7 - - - - - - - - -
26/10:30pm 21.0 E 8 9 1021.7 - - - - - - - - -
26/10:00pm 20.8 E 8 9 1021.6 - - - - - - - - -
26/09:30pm 20.9 E 8 9 1021.4 - - - - - - - - -
26/09:00pm 20.9 E 7 8 1021.3 - - - - - - - - -
26/08:30pm 20.9 E 6 7 1021.4 - - - - - - - - -
26/08:00pm 20.9 E 5 6 1021.2 - - - - - - - - -
26/07:30pm 20.9 E 5 5 1021.0 - - - - - - - - -
26/07:00pm 20.9 E 4 5 1020.6 - - - - - - - - -
26/06:30pm 21.0 E 4 5 1020.3 - - - - - - - - -
26/06:00pm 21.0 E 4 5 1020.0 - - - - - - - - -
26/05:30pm 21.1 E 4 5 1019.6 - - - - - - - - -
26/05:00pm 21.6 E 4 5 1019.5 - - - - - - - - -
26/04:30pm 22.1 E 4 4 1019.5 - - - - - - - - -
26/04:00pm 22.2 ESE 3 4 1019.5 - - - - - - - - -
26/03:30pm 21.9 SE 3 4 1019.5 - - - - - - - - -
26/03:00pm 22.3 ESE 3 4 1019.2 - - - - - - - - -
26/02:30pm 21.6 SE 4 4 1019.3 - - - - - - - - -
26/02:00pm 21.9 SE 3 4 1019.4 - - - - - - - - -
26/01:30pm 22.1 SE 4 5 1019.5 - - - - - - - - -
26/01:00pm 22.0 SSE 4 5 1019.7 - - - - - - - - -
26/12:30pm 21.6 SSE 5 5 1020.0 - - - - - - - - -
26/12:00pm 21.6 SSE 5 6 1020.3 - - - - - - - - -
26/11:30am 21.5 SSE 5 6 1020.6 - - - - - - - - -
26/11:00am 21.2 SSE 7 7 1021.0 - - - - - - - - -
26/10:30am 21.2 S 6 7 1021.1 - - - - - - - - -
26/10:00am 20.6 S 8 10 1021.1 - - - - - - - - -
26/09:30am 19.7 S 9 10 1021.0 - - - - - - - - -
26/09:00am 19.7 S 8 9 1020.7 - - - - - - - - -
26/08:30am 19.3 S 8 9 1020.4 - - - - - - - - -
26/08:00am 19.0 SSW 7 8 1020.2 - - - - - - - - -
26/07:30am 18.9 SSW 7 9 1020.0 - - - - - - - - -
26/07:00am 18.6 SSW 8 - 1019.6 - - - - - - - - -
26/12:00am 21.2 ENE 3 4 1019.2 - - - - - - - - -
 
Date/Time
EST
Temp
°C
Wind Pressure Rain since
9am
mm
Weather Cloud Vis
km
Sea
Height
m
Swell
Dir  Spd
kts
Gust
kts
hPa Trend Height
m
Period
s
Dir
25/11:30pm 21.3 NE 4 6 1019.3 - - - - - - - - -
25/11:00pm 21.4 NE 6 7 1019.5 - - - - - - - - -
25/10:30pm 21.4 ENE 7 8 1019.5 - - - - - - - - -
25/10:00pm 21.4 ENE 8 10 1019.4 - - - - - - - - -
25/09:30pm 21.2 ENE 9 10 1019.3 - - - - - - - - -
25/09:00pm 21.1 ENE 11 12 1019.1 - - - - - - - - -
25/08:30pm 21.1 ENE 10 12 1019.1 - - - - - - - - -
25/08:00pm 20.9 ENE 10 12 1018.9 - - - - - - - - -
25/07:30pm 20.8 E 9 11 1018.6 - - - - - - - - -
25/07:00pm 20.9 ENE 11 12 1018.3 - - - - - - - - -
25/06:30pm 21.0 ENE 13 15 1017.8 - - - - - - - - -
25/06:00pm 21.0 ENE 12 13 1017.7 - - - - - - - - -
25/05:30pm 21.1 ENE 12 13 1017.3 - - - - - - - - -
25/05:00pm 21.3 E 10 11 1017.4 - - - - - - - - -
25/04:30pm 21.7 ENE 10 11 1017.3 - - - - - - - - -
25/04:00pm 22.1 ENE 9 10 1017.4 - - - - - - - - -
25/03:30pm 22.1 E 8 10 1017.3 - - - - - - - - -
25/03:00pm 22.1 E 8 9 1017.1 - - - - - - - - -
25/02:30pm 22.3 ESE 7 7 1017.2 - - - - - - - - -
25/02:00pm 22.5 ESE 6 7 1017.2 - - - - - - - - -
25/01:30pm 22.4 ESE 6 7 1017.3 - - - - - - - - -
25/01:00pm 22.2 ESE 6 7 1017.7 - - - - - - - - -
25/12:30pm 22.4 ESE 6 7 1017.8 - - - - - - - - -
25/10:30am 21.3 S 4 5 1019.4 - - - - - - - - -
25/10:00am 20.8 S 5 - 1019.6 - - - - - - - - -
25/01:00am 19.3 WSW 5 6 1018.3 - - - - - - - - -
25/12:30am 19.1 WSW 5 5 1018.2 - - - - - - - - -
25/12:00am 19.3 WSW 5 5 1018.2 - - - - - - - - -
 
Date/Time
EST
Temp
°C
Wind Pressure Rain since
9am
mm
Weather Cloud Vis
km
Sea
Height
m
Swell
Dir  Spd
kts
Gust
kts
hPa Trend Height
m
Period
s
Dir
24/11:30pm 21.4 CALM 0 0 1018.4 - - - - - - - - -
24/11:00pm 21.4 NNE 3 4 1018.5 - - - - - - - - -
24/10:30pm 21.5 NE 6 7 1018.3 - - - - - - - - -
24/10:00pm 21.4 NE 7 9 1018.3 - - - - - - - - -
24/09:30pm 21.5 NE 7 8 1018.3 - - - - - - - - -
24/09:00pm 21.6 NNE 7 8 1018.3 - - - - - - - - -
24/08:30pm 21.6 NNE 6 7 1018.1 - - - - - - - - -
24/08:00pm 21.6 NNE 5 7 1018.0 - - - - - - - - -
24/07:30pm 21.7 NNE 7 8 1017.7 - - - - - - - - -
24/07:00pm 21.7 NNE 8 9 1017.3 - - - - - - - - -
24/06:30pm 21.9 N 8 9 1017.3 - - - - - - - - -
24/06:00pm 21.8 N 7 7 1016.9 - - - - - - - - -
24/05:30pm 22.0 N 7 8 1016.7 - - - - - - - - -
24/05:00pm 21.7 N 7 - 1016.5 - - - - - - - - -

Other Formats:

Comma delimited format used in spreadsheet applications
http://www.bom.gov.au/fwo/IDQ60701/IDQ60701.94378.axf

JavaScript Object Notation format (JSON) in row-major order
http://www.bom.gov.au/fwo/IDQ60701/IDQ60701.94378.json